Weather reports worldwide

Advertisment
Modena, Italy (16128): temperature & dewpoint: 11.07.2019 01:00:00 - 17.07.2019 01:00:00 (CEST)Modena, Italy (16128): wind speed: 11.07.2019 01:00:00 - 17.07.2019 01:00:00 (CEST)Modena, Italy (16128): wind direction: 11.07.2019 01:00:00 - 17.07.2019 01:00:00 (CEST)Modena, Italy (16128): reduced air pressure: 11.07.2019 01:00:00 - 17.07.2019 01:00:00 (CEST)Modena, Italy (16128): precipitation: 11.07.2019 01:00:00 - 17.07.2019 01:00:00 (CEST)
Date & Time tt [°C] td [°C] ff [km/h] ff [kn] dd ppp [hPa] rr [mm]
17.07.2019 01:00:00 - - - - - - -
17.07.2019 00:00:00 - - - - - - -
16.07.2019 23:00:00 24,0 11,3 8 4 SSW 1013,8 0,0
16.07.2019 22:00:00 26,0 8,9 0 0 NW 1013,8 0,0
16.07.2019 21:00:00 26,7 8,6 6 3 NW 1013,2 0,0
16.07.2019 20:00:00 27,2 8,6 8 4 NW 1013,1 0,0
16.07.2019 19:00:00 28,1 8,4 8 4 NNW 1013,1 0,0
16.07.2019 18:00:00 28,5 8,2 9 5 NW 1013,2 0,0
16.07.2019 17:00:00 28,3 8,6 11 6 WNW 1013,6 0,0
16.07.2019 16:00:00 27,3 8,7 11 6 NW 1014,0 0,0
16.07.2019 15:00:00 27,1 9,0 8 4 W 1014,3 0,0
16.07.2019 14:00:00 27,0 9,8 7 4 N 1014,6 0,0
16.07.2019 13:00:00 25,2 10,3 6 3 WNW 1015,1 0,0
16.07.2019 12:00:00 24,7 10,9 6 3 NNW 1015,2 0,0
16.07.2019 11:00:00 22,9 13,7 11 6 WNW 1015,2 0,0
16.07.2019 10:00:00 21,6 14,0 13 7 W 1015,1 0,0
16.07.2019 09:00:00 20,4 14,5 12 7 WNW 1015,0 0,0
16.07.2019 08:00:00 19,4 14,2 9 5 WNW 1014,7 0,0
16.07.2019 07:00:00 18,1 14,0 11 6 W 1014,7 0,0
16.07.2019 06:00:00 17,5 13,8 14 7 W 1014,4 0,0
16.07.2019 05:00:00 17,1 14,0 13 7 W 1014,2 0,0
16.07.2019 04:00:00 17,1 14,0 13 7 W 1014,1 0,0
16.07.2019 03:00:00 17,0 14,3 9 5 W 1014,4 0,0
16.07.2019 02:00:00 17,4 14,9 9 5 W 1014,6 0,0
16.07.2019 01:00:00 17,8 15,4 10 5 W 1014,5 0,0
16.07.2019 00:00:00 18,1 15,9 9 5 WSW 1014,4 0,0
15.07.2019 23:00:00 18,5 15,2 - - - 1013,9 0,0
15.07.2019 22:00:00 19,1 14,4 6 3 W 1013,3 0,0
15.07.2019 21:00:00 19,8 13,3 5 3 N 1012,6 0,0
15.07.2019 20:00:00 20,6 12,0 1 1 SSW 1012,3 0,0
15.07.2019 19:00:00 20,6 12,8 0 0 ENE 1012,2 0,0
15.07.2019 18:00:00 20,1 13,8 2 1 ESE 1012,1 0,0
15.07.2019 17:00:00 20,0 13,9 10 5 E 1012,2 0,0
15.07.2019 16:00:00 19,0 15,1 2 1 ESE 1012,3 0,0
15.07.2019 15:00:00 18,9 15,8 4 2 NE 1012,2 0,2
15.07.2019 14:00:00 17,6 15,6 1 0 N 1012,3 1,0
15.07.2019 13:00:00 16,8 14,6 6 3 ENE 1011,7 4,2
15.07.2019 12:00:00 17,6 16,3 16 9 ENE 1011,1 6,0
15.07.2019 11:00:00 19,2 15,5 8 4 NW 1010,3 0,0
15.07.2019 10:00:00 19,2 15,7 8 4 NW 1010,2 0,0
15.07.2019 09:00:00 18,4 16,0 6 3 WSW 1010,4 0,0
15.07.2019 08:00:00 18,5 15,2 1 0 WNW 1009,7 0,2
15.07.2019 07:00:00 18,2 15,6 1 1 SW 1009,7 2,0
15.07.2019 06:00:00 18,6 14,9 3 2 W 1010,1 0,8
15.07.2019 05:00:00 19,4 14,2 8 4 W 1010,4 0,0
15.07.2019 04:00:00 21,3 13,2 3 2 SE 1010,2 0,0
15.07.2019 03:00:00 21,1 13,3 0 0 E 1010,3 0,0
15.07.2019 02:00:00 21,6 13,2 14 8 ENE 1010,1 0,0
15.07.2019 01:00:00 22,0 13,4 0 0 ENE 1010,6 0,0
15.07.2019 00:00:00 22,1 13,2 12 6 ESE 1010,0 0,0
14.07.2019 23:00:00 22,7 12,9 11 6 ESE 1010,0 0,0
14.07.2019 22:00:00 23,7 13,8 14 8 E 1009,8 0,0
14.07.2019 21:00:00 24,8 13,4 16 9 E 1009,4 0,0
14.07.2019 20:00:00 25,8 12,3 9 5 SE 1009,5 0,0
14.07.2019 19:00:00 26,2 11,2 9 5 SSE 1009,8 0,0
14.07.2019 18:00:00 27,1 11,6 18 10 SSE 1009,7 0,0
14.07.2019 17:00:00 27,9 9,7 14 8 E 1010,1 0,0
14.07.2019 16:00:00 28,2 7,4 14 8 E 1010,4 0,0
14.07.2019 15:00:00 28,0 8,3 16 9 ESE 1010,7 0,0
14.07.2019 14:00:00 27,9 8,2 15 8 E 1011,0 0,0
14.07.2019 13:00:00 27,2 9,1 11 6 ESE 1011,7 0,0
14.07.2019 12:00:00 25,5 12,4 10 5 ESE 1012,2 0,0
14.07.2019 11:00:00 23,6 14,0 10 5 ESE 1012,5 0,0
14.07.2019 10:00:00 22,4 13,7 5 3 E 1012,6 0,0
14.07.2019 09:00:00 21,0 13,7 2 1 NNW 1012,4 0,0
14.07.2019 08:00:00 19,9 13,1 2 1 W 1012,2 0,0
14.07.2019 07:00:00 19,0 13,2 - - - 1012,2 -
14.07.2019 06:00:00 17,9 12,8 4 2 SE 1012,4 0,0
14.07.2019 05:00:00 17,7 13,0 6 3 ESE 1012,5 0,0
14.07.2019 04:00:00 17,9 12,8 10 5 ESE 1012,9 0,0
14.07.2019 03:00:00 17,7 12,2 10 6 ESE 1013,0 0,0
14.07.2019 02:00:00 18,5 10,8 14 8 E 1013,0 0,0
14.07.2019 01:00:00 21,7 11,7 3 2 S 1012,7 0,0
14.07.2019 00:00:00 21,5 10,6 12 7 SSE 1012,8 0,0
13.07.2019 23:00:00 21,4 9,6 22 12 ESE 1012,8 0,0
13.07.2019 22:00:00 22,1 11,8 32 18 ENE 1012,2 0,0
13.07.2019 21:00:00 26,2 14,6 16 9 E 1009,9 0,0
13.07.2019 20:00:00 29,1 9,3 4 2 N 1009,4 0,0
13.07.2019 19:00:00 29,5 8,5 3 1 ENE 1009,2 0,0
13.07.2019 18:00:00 28,9 9,1 7 4 E 1009,1 0,0
13.07.2019 17:00:00 29,8 11,3 8 4 NE 1009,3 0,0
13.07.2019 16:00:00 28,5 12,8 8 4 ENE 1009,8 0,0
13.07.2019 15:00:00 27,9 13,4 5 3 NE 1010,1 0,0
13.07.2019 14:00:00 26,7 15,1 6 3 ENE 1010,7 0,0
13.07.2019 13:00:00 26,4 15,8 7 4 ESE 1010,9 0,0
13.07.2019 12:00:00 24,8 15,7 6 4 ENE 1011,0 0,0
13.07.2019 11:00:00 23,3 15,9 6 4 E 1011,0 0,0
13.07.2019 10:00:00 22,0 15,8 11 6 ESE 1010,6 0,0
13.07.2019 09:00:00 21,2 16,2 6 3 E 1011,0 0,0
13.07.2019 08:00:00 20,7 15,9 1 1 S 1010,7 0,0
13.07.2019 07:00:00 19,6 15,7 6 3 NW 1009,9 0,0
13.07.2019 06:00:00 18,9 15,8 8 5 NW 1009,8 0,0
13.07.2019 05:00:00 19,8 15,9 0 0 NW 1009,3 0,0
13.07.2019 04:00:00 19,6 15,9 3 2 E 1009,4 0,0
13.07.2019 03:00:00 20,0 16,2 4 2 NE 1009,8 0,0
13.07.2019 02:00:00 20,7 16,3 9 5 NE 1009,7 0,0
13.07.2019 01:00:00 22,8 15,6 3 2 E 1010,0 -
13.07.2019 00:00:00 22,9 15,5 10 5 E 1010,2 0,0
12.07.2019 23:00:00 23,5 15,0 16 8 E 1010,3 0,0
12.07.2019 22:00:00 24,8 15,1 16 9 E 1010,2 0,0
12.07.2019 21:00:00 27,7 13,6 21 11 ESE 1009,8 0,0
12.07.2019 20:00:00 29,1 11,6 12 6 ENE 1009,5 0,0
12.07.2019 19:00:00 30,6 11,5 7 4 NNE 1009,4 0,0
12.07.2019 18:00:00 29,9 11,9 8 4 SSE 1009,4 0,0
12.07.2019 17:00:00 30,1 12,1 10 5 SE 1009,7 0,0
12.07.2019 16:00:00 29,6 11,6 7 4 WNW 1010,7 0,0
12.07.2019 15:00:00 28,6 12,1 11 6 NW 1011,5 0,0
12.07.2019 14:00:00 28,0 13,1 4 2 NNE 1011,9 0,0
12.07.2019 13:00:00 28,1 14,0 6 3 ESE 1012,3 0,0
12.07.2019 12:00:00 26,2 14,3 6 3 ESE 1012,8 0,0
12.07.2019 11:00:00 24,7 15,3 6 3 E 1013,2 0,0
12.07.2019 10:00:00 22,4 15,5 5 3 SE 1013,5 0,0
12.07.2019 09:00:00 21,3 15,4 5 3 E 1013,8 0,0
12.07.2019 08:00:00 19,9 15,3 1 0 NNW 1013,5 0,0
12.07.2019 07:00:00 19,3 15,0 1 0 E 1013,2 0,0
12.07.2019 06:00:00 18,3 15,0 1 1 ESE 1013,0 0,0
12.07.2019 05:00:00 18,8 14,5 6 3 ENE 1012,9 0,0
12.07.2019 04:00:00 19,6 13,8 7 4 ENE 1012,9 0,0
12.07.2019 03:00:00 20,6 14,0 7 4 ENE 1013,0 0,0
12.07.2019 02:00:00 20,9 14,1 9 5 ESE 1013,0 0,0
12.07.2019 01:00:00 21,2 14,4 8 4 E 1013,1 0,0
12.07.2019 00:00:00 21,1 14,5 8 5 SE 1012,9 2,0
11.07.2019 23:00:00 22,1 12,6 6 3 SSE 1013,1 1,6
11.07.2019 22:00:00 23,5 10,9 13 7 E 1012,6 0,0
11.07.2019 21:00:00 24,3 10,6 18 10 E 1012,1 0,0
11.07.2019 20:00:00 25,1 11,3 16 9 E 1011,8 0,0
11.07.2019 19:00:00 25,9 11,6 21 11 E 1011,7 0,0
11.07.2019 18:00:00 26,9 11,0 10 6 ENE 1011,9 0,0
11.07.2019 17:00:00 26,9 10,6 9 5 E 1012,3 0,0
11.07.2019 16:00:00 27,0 10,7 11 6 E 1012,7 0,0
11.07.2019 15:00:00 26,8 10,5 12 6 E 1013,1 0,0
11.07.2019 14:00:00 26,2 9,9 13 7 E 1013,5 0,0
11.07.2019 13:00:00 25,4 9,7 16 9 E 1014,1 0,0
11.07.2019 12:00:00 25,1 10,2 16 9 E 1014,5 0,0
11.07.2019 11:00:00 24,7 9,8 17 9 E 1014,8 0,0
11.07.2019 10:00:00 23,0 12,0 11 6 E 1015,1 0,0
11.07.2019 09:00:00 22,1 12,1 6 3 E 1014,9 0,0
11.07.2019 08:00:00 20,3 11,0 5 3 E 1014,9 0,0
11.07.2019 07:00:00 19,1 11,9 1 1 SE 1014,7 0,0
11.07.2019 06:00:00 19,1 11,6 4 2 ESE 1014,6 0,0
11.07.2019 05:00:00 19,0 13,4 0 0 SE 1014,5 0,0
11.07.2019 04:00:00 20,0 12,7 0 0 SE 1014,5 0,0
11.07.2019 03:00:00 20,3 12,0 4 2 ESE 1014,8 0,0
11.07.2019 02:00:00 20,3 13,7 4 2 SSE 1014,7 0,0
11.07.2019 01:00:00 20,9 13,6 4 2 SSE 1014,5 0,0

tt = temperature
td = dewpoint
ff = wind speed
dd = wind direction
ppp = reduced air pressure
rr = precipitation

Next stations